createdAt,value
2019-01-29T00:00:49.093Z,95476.97
2019-01-29T00:03:20.980Z,95493.56
2019-01-29T00:05:52.899Z,95488.87
2019-01-29T00:08:24.719Z,95499.09
2019-01-29T00:10:56.857Z,95497.45
2019-01-29T00:13:28.758Z,95490.51
2019-01-29T00:16:00.741Z,95499.06
2019-01-29T00:18:33.524Z,95503.08
2019-01-29T00:21:05.785Z,95493.42
2019-01-29T00:23:37.606Z,95504.84
2019-01-29T00:26:09.775Z,95510.04
2019-01-29T00:28:41.585Z,95511.33
2019-01-29T00:31:13.479Z,95509.90
2019-01-29T00:33:45.368Z,95500.14
2019-01-29T00:36:17.206Z,95508.17
2019-01-29T00:38:49.027Z,95511.14
2019-01-29T00:41:20.930Z,95516.97
2019-01-29T00:43:52.763Z,95518.84
2019-01-29T00:46:24.509Z,95514.52
2019-01-29T00:48:56.361Z,95526.34
2019-01-29T00:51:28.451Z,95519.78
2019-01-29T00:54:00.263Z,95518.12
2019-01-29T00:56:32.099Z,95526.58
2019-01-29T00:59:03.924Z,95530.34
2019-01-29T01:01:35.745Z,95523.28
2019-01-29T01:04:07.633Z,95527.06
2019-01-29T01:06:39.742Z,95527.63
2019-01-29T01:09:11.739Z,95533.44
2019-01-29T01:11:43.656Z,95534.35
2019-01-29T01:14:15.655Z,95535.88
2019-01-29T01:16:47.419Z,95538.47
2019-01-29T01:19:19.873Z,95540.81
2019-01-29T01:21:51.923Z,95538.47
2019-01-29T01:24:23.804Z,95543.38
2019-01-29T01:26:55.588Z,95557.23
2019-01-29T01:29:27.489Z,95545.73
2019-01-29T01:31:59.581Z,95553.84
2019-01-29T01:34:31.319Z,95564.89
2019-01-29T01:37:03.218Z,95563.69
2019-01-29T01:39:34.983Z,95564.80
2019-01-29T01:42:06.972Z,95569.34
2019-01-29T01:44:38.786Z,95567.23
2019-01-29T01:47:10.679Z,95570.95
2019-01-29T01:49:42.985Z,95569.45
2019-01-29T01:52:14.897Z,95576.27
2019-01-29T01:54:46.635Z,95582.50
2019-01-29T01:57:18.502Z,95582.00
2019-01-29T01:59:50.289Z,95584.70
2019-01-29T02:02:22.194Z,95589.09
2019-01-29T02:04:54.267Z,95592.25
2019-01-29T02:07:26.098Z,95591.64
2019-01-29T02:09:58.085Z,95592.70
2019-01-29T02:12:30.060Z,95599.16
2019-01-29T02:15:01.983Z,95604.45
2019-01-29T02:17:33.915Z,95605.08
2019-01-29T02:20:08.000Z,95605.98
2019-01-29T02:22:39.940Z,95600.22
2019-01-29T02:25:12.057Z,95604.01
2019-01-29T02:27:44.066Z,95600.27
2019-01-29T02:30:19.166Z,95609.77
2019-01-29T02:32:51.125Z,95615.64
2019-01-29T02:35:23.052Z,95617.38
2019-01-29T02:37:56.228Z,95627.70
2019-01-29T02:40:29.756Z,95619.74
2019-01-29T02:43:01.553Z,95629.47
2019-01-29T02:45:33.409Z,95630.08
2019-01-29T02:48:05.616Z,95634.05
2019-01-29T02:50:37.607Z,95636.06
2019-01-29T02:53:18.088Z,95633.12
2019-01-29T02:55:44.135Z,95633.70
2019-01-29T02:58:16.058Z,95635.00
2019-01-29T03:00:47.983Z,95641.45
2019-01-29T03:03:20.023Z,95646.53
2019-01-29T03:05:51.946Z,95654.50
2019-01-29T03:08:23.823Z,95647.33
2019-01-29T03:10:55.749Z,95641.47
2019-01-29T03:13:27.609Z,95645.10
2019-01-29T03:15:59.530Z,95650.53
2019-01-29T03:18:31.395Z,95646.04
2019-01-29T03:21:03.316Z,95652.16
2019-01-29T03:23:35.242Z,95649.10
2019-01-29T03:26:07.174Z,95653.83
2019-01-29T03:28:39.440Z,95659.09
2019-01-29T03:31:11.707Z,95660.16
2019-01-29T03:33:43.606Z,95660.25
2019-01-29T03:36:15.571Z,95664.27
2019-01-29T03:38:47.482Z,95663.55
2019-01-29T03:41:19.447Z,95666.72
2019-01-29T03:43:51.343Z,95666.60
2019-01-29T03:46:23.167Z,95670.59
2019-01-29T03:48:55.004Z,95666.52
2019-01-29T03:51:26.892Z,95664.74
2019-01-29T03:53:58.800Z,95671.54
2019-01-29T03:56:30.705Z,95670.50
2019-01-29T03:59:02.462Z,95676.12
2019-01-29T04:01:34.353Z,95680.73
2019-01-29T04:04:06.319Z,95679.89
2019-01-29T04:06:38.223Z,95688.94
2019-01-29T04:09:10.531Z,95688.58
2019-01-29T04:11:42.348Z,95685.89
2019-01-29T04:14:14.169Z,95695.05
2019-01-29T04:16:45.908Z,95691.99
2019-01-29T04:19:17.889Z,95690.92
2019-01-29T04:21:49.798Z,95693.16
2019-01-29T04:24:21.557Z,95692.46
2019-01-29T04:26:53.308Z,95696.33
2019-01-29T04:29:25.187Z,95697.63
2019-01-29T04:31:57.014Z,95692.92
2019-01-29T04:34:28.857Z,95698.09
2019-01-29T04:37:00.608Z,95699.50
2019-01-29T04:39:32.436Z,95698.57
2019-01-29T04:42:04.326Z,95700.33
2019-01-29T04:44:36.084Z,95703.27
2019-01-29T04:47:07.826Z,95702.22
2019-01-29T04:49:39.583Z,95710.09
2019-01-29T04:52:11.475Z,95707.14
2019-01-29T04:54:43.305Z,95706.92
2019-01-29T04:57:15.137Z,95707.14
2019-01-29T04:59:46.897Z,95721.82
2019-01-29T05:02:19.497Z,95719.23
2019-01-29T05:04:51.359Z,95724.87
2019-01-29T05:07:23.177Z,95728.06
2019-01-29T05:09:54.940Z,95730.52
2019-01-29T05:12:26.834Z,95724.87
2019-01-29T05:14:58.847Z,95725.70
2019-01-29T05:17:30.745Z,95728.53
2019-01-29T05:20:02.825Z,95735.67
2019-01-29T05:22:34.638Z,95738.52
2019-01-29T05:25:07.285Z,95741.31
2019-01-29T05:27:39.242Z,95745.33
2019-01-29T05:30:20.575Z,95745.19
2019-01-29T05:32:51.450Z,95749.31
2019-01-29T05:35:23.282Z,95749.42
2019-01-29T05:37:55.428Z,95755.77
2019-01-29T05:40:27.265Z,95761.41
2019-01-29T05:42:59.084Z,95764.45
2019-01-29T05:45:30.985Z,95766.00
2019-01-29T05:48:02.866Z,95769.73
2019-01-29T05:50:34.700Z,95770.23
2019-01-29T05:53:06.702Z,95769.27
2019-01-29T05:55:38.681Z,95769.73
2019-01-29T05:58:10.499Z,95778.92
2019-01-29T06:00:42.389Z,95776.80
2019-01-29T06:03:14.134Z,95781.50
2019-01-29T06:05:45.960Z,95779.28
2019-01-29T06:08:17.714Z,95776.09
2019-01-29T06:10:49.534Z,95786.42
2019-01-29T06:13:21.277Z,95786.06
2019-01-29T06:15:53.347Z,95785.85
2019-01-29T06:18:25.240Z,95791.80
2019-01-29T06:20:57.140Z,95789.48
2019-01-29T06:23:28.893Z,95792.42
2019-01-29T06:26:00.820Z,95790.77
2019-01-29T06:28:32.689Z,95797.11
2019-01-29T06:31:04.578Z,95793.60
2019-01-29T06:33:36.465Z,95793.70
2019-01-29T06:36:09.343Z,95793.71
2019-01-29T06:38:41.152Z,95795.94
2019-01-29T06:41:12.982Z,95799.23
2019-01-29T06:43:44.725Z,95800.64
2019-01-29T06:46:16.612Z,95796.86
2019-01-29T06:48:48.500Z,95798.05
2019-01-29T06:51:20.253Z,95798.63
2019-01-29T06:53:53.042Z,95794.42
2019-01-29T06:56:24.911Z,95801.41
2019-01-29T06:58:56.697Z,95807.82
2019-01-29T07:01:28.852Z,95807.34
2019-01-29T07:04:00.733Z,95806.88
2019-01-29T07:06:32.638Z,95818.05
2019-01-29T07:09:07.927Z,95817.08
2019-01-29T07:11:40.282Z,95812.73
2019-01-29T07:14:12.090Z,95814.39
2019-01-29T07:16:56.891Z,95820.27
2019-01-29T07:19:32.821Z,95821.20
2019-01-29T07:22:04.829Z,95826.74
2019-01-29T07:24:42.736Z,95826.95
2019-01-29T07:27:10.294Z,95827.88
2019-01-29T07:29:42.112Z,95827.66
2019-01-29T07:32:14.011Z,95830.45
2019-01-29T07:34:45.837Z,95833.73
2019-01-29T07:37:21.992Z,95831.54
2019-01-29T07:39:51.424Z,95837.08
2019-01-29T07:42:23.315Z,95837.63
2019-01-29T07:44:55.373Z,95838.57
2019-01-29T07:47:27.195Z,95835.31
2019-01-29T07:49:58.999Z,95844.00
2019-01-29T07:52:31.874Z,95840.59
2019-01-29T07:55:03.612Z,95845.51
2019-01-29T07:57:35.437Z,95836.34
2019-01-29T08:00:09.085Z,95838.47
2019-01-29T08:02:41.191Z,95838.93
2019-01-29T08:05:13.105Z,95840.80
2019-01-29T08:07:44.937Z,95845.18
2019-01-29T08:10:17.008Z,95844.94
2019-01-29T08:12:48.918Z,95853.66
2019-01-29T08:15:21.589Z,95848.13
2019-01-29T08:17:53.517Z,95846.94
2019-01-29T08:20:25.489Z,95850.46
2019-01-29T08:22:57.248Z,95848.70
2019-01-29T08:25:29.241Z,95845.91
2019-01-29T08:28:01.223Z,95848.49
2019-01-29T08:30:33.045Z,95851.30
2019-01-29T08:33:04.951Z,95848.50
2019-01-29T08:35:36.857Z,95845.20
2019-01-29T08:38:09.443Z,95848.60
2019-01-29T08:40:41.583Z,95846.63
2019-01-29T08:43:13.334Z,95848.97
2019-01-29T08:45:45.220Z,95848.97
2019-01-29T08:48:16.976Z,95846.95
2019-01-29T08:50:48.956Z,95843.33
2019-01-29T08:53:20.780Z,95846.95
2019-01-29T08:55:52.936Z,95845.66
2019-01-29T08:58:27.258Z,95845.66
2019-01-29T09:00:58.446Z,95840.03
2019-01-29T09:03:30.217Z,95841.31
2019-01-29T09:06:01.947Z,95841.56
2019-01-29T09:08:33.781Z,95846.59
2019-01-29T09:11:05.770Z,95845.09
2019-01-29T09:13:37.515Z,95844.27
2019-01-29T09:16:10.061Z,95842.70
2019-01-29T09:18:41.882Z,95843.90
2019-01-29T09:21:13.768Z,95845.55
2019-01-29T09:23:45.518Z,95841.17
2019-01-29T09:26:17.327Z,95835.57
2019-01-29T09:28:49.072Z,95838.12
2019-01-29T09:31:20.882Z,95835.89
2019-01-29T09:33:52.713Z,95833.56
2019-01-29T09:36:24.533Z,95835.22
2019-01-29T09:38:56.429Z,95835.56
2019-01-29T09:41:28.318Z,95833.70
2019-01-29T09:44:00.140Z,95839.59
2019-01-29T09:46:31.880Z,95844.77
2019-01-29T09:49:03.700Z,95837.82
2019-01-29T09:51:35.435Z,95841.47
2019-01-29T09:54:08.365Z,95841.80
2019-01-29T09:56:40.243Z,95842.28
2019-01-29T09:59:11.985Z,95842.86
2019-01-29T10:01:44.124Z,95843.69
2019-01-29T10:04:15.872Z,95836.62
2019-01-29T10:06:48.047Z,95838.28
2019-01-29T10:09:20.189Z,95833.78
2019-01-29T10:11:52.073Z,95836.03
2019-01-29T10:14:23.971Z,95838.27
2019-01-29T10:16:55.854Z,95828.98
2019-01-29T10:19:27.610Z,95829.09
2019-01-29T10:21:59.498Z,95826.77
2019-01-29T10:24:31.338Z,95823.08
2019-01-29T10:27:03.213Z,95819.93
2019-01-29T10:29:34.968Z,95814.38
2019-01-29T10:32:07.158Z,95808.76
2019-01-29T10:34:38.971Z,95812.98
2019-01-29T10:37:11.041Z,95799.08
2019-01-29T10:39:42.795Z,95792.47
2019-01-29T10:42:14.689Z,95788.69
2019-01-29T10:44:46.518Z,95792.92
2019-01-29T10:47:18.396Z,95785.61
2019-01-29T10:49:50.296Z,95780.76
2019-01-29T10:52:22.190Z,95773.94
2019-01-29T10:54:53.940Z,95764.61
2019-01-29T10:57:25.759Z,95762.63
2019-01-29T10:59:57.651Z,95758.89
2019-01-29T11:02:29.507Z,95761.78
2019-01-29T11:05:01.371Z,95755.90
2019-01-29T11:07:33.112Z,95757.52
2019-01-29T11:10:06.772Z,95755.84
2019-01-29T11:12:38.647Z,95744.69
2019-01-29T11:15:27.546Z,95743.95
2019-01-29T11:17:59.523Z,95737.20
2019-01-29T11:20:31.659Z,95739.95
2019-01-29T11:23:03.609Z,95735.39
2019-01-29T11:25:35.499Z,95731.30
2019-01-29T11:28:07.714Z,95736.77
2019-01-29T11:30:39.665Z,95730.73
2019-01-29T11:33:11.620Z,95727.91
2019-01-29T11:35:43.514Z,95722.41
2019-01-29T11:38:15.316Z,95724.33
2019-01-29T11:40:47.227Z,95718.80
2019-01-29T11:43:18.950Z,95717.62
2019-01-29T11:45:53.633Z,95711.00
2019-01-29T11:48:25.441Z,95703.88
2019-01-29T11:50:57.328Z,95691.05
2019-01-29T11:53:29.133Z,95695.88
2019-01-29T11:56:04.722Z,95687.23
2019-01-29T11:58:34.528Z,95690.20
2019-01-29T12:01:08.468Z,95670.37
2019-01-29T12:03:40.352Z,95675.19
2019-01-29T12:06:12.170Z,95674.73
2019-01-29T12:08:44.055Z,95675.56
2019-01-29T12:11:16.073Z,95670.23
2019-01-29T12:13:47.808Z,95665.59
2019-01-29T12:16:20.774Z,95661.78
2019-01-29T12:18:52.601Z,95656.95
2019-01-29T12:21:24.584Z,95651.63
2019-01-29T12:23:56.436Z,95644.78
2019-01-29T12:26:28.529Z,95643.70
2019-01-29T12:29:01.548Z,95640.30
2019-01-29T12:31:33.442Z,95630.77
2019-01-29T12:34:05.505Z,95626.20
2019-01-29T12:36:37.245Z,95621.70
2019-01-29T12:39:10.416Z,95623.13
2019-01-29T12:41:42.313Z,95619.67
2019-01-29T12:44:14.452Z,95619.78
2019-01-29T12:46:46.284Z,95610.22
2019-01-29T12:49:18.109Z,95608.64
2019-01-29T12:52:02.591Z,95605.95
2019-01-29T12:54:34.481Z,95598.97
2019-01-29T12:57:06.385Z,95600.63
2019-01-29T12:59:38.271Z,95601.75
2019-01-29T13:02:10.159Z,95592.17
2019-01-29T13:04:41.974Z,95595.13
2019-01-29T13:07:14.063Z,95586.77
2019-01-29T13:09:45.871Z,95587.01
2019-01-29T13:12:17.693Z,95587.12
2019-01-29T13:14:49.699Z,95586.05
2019-01-29T13:17:21.518Z,95580.58
2019-01-29T13:19:53.339Z,95576.97
2019-01-29T13:22:25.097Z,95575.59
2019-01-29T13:24:56.847Z,95574.84
2019-01-29T13:27:28.672Z,95566.70
2019-01-29T13:30:00.727Z,95565.56
2019-01-29T13:32:33.601Z,95569.22
2019-01-29T13:35:06.327Z,95560.23
2019-01-29T13:37:38.221Z,95567.63
2019-01-29T13:40:10.903Z,95561.19
2019-01-29T13:42:42.800Z,95556.62
2019-01-29T13:45:14.790Z,95548.67
2019-01-29T13:47:46.685Z,95542.59
2019-01-29T13:50:24.531Z,95541.95
2019-01-29T13:52:56.272Z,95543.45
2019-01-29T13:55:28.150Z,95540.14
2019-01-29T13:58:00.041Z,95532.05
2019-01-29T14:00:33.145Z,95525.09
2019-01-29T14:03:05.393Z,95524.52
2019-01-29T14:05:37.271Z,95525.95
2019-01-29T14:08:09.926Z,95531.41
2019-01-29T14:10:41.801Z,95525.18
2019-01-29T14:13:13.762Z,95527.78
2019-01-29T14:15:53.493Z,95522.91
2019-01-29T14:18:29.562Z,95520.92
2019-01-29T14:21:02.202Z,95520.70
2019-01-29T14:23:33.945Z,95514.75
2019-01-29T14:26:06.006Z,95511.71
2019-01-29T14:28:37.824Z,95507.47
2019-01-29T14:31:09.703Z,95501.80
2019-01-29T14:33:41.590Z,95501.02
2019-01-29T14:36:16.912Z,95501.37
2019-01-29T14:39:24.023Z,95499.83
2019-01-29T14:41:55.901Z,95499.72
2019-01-29T14:44:38.326Z,95494.80
2019-01-29T14:47:10.193Z,95489.91
2019-01-29T14:49:42.078Z,95491.41
2019-01-29T14:52:13.872Z,95490.38
2019-01-29T14:54:45.680Z,95489.92
2019-01-29T14:57:17.565Z,95491.91
2019-01-29T14:59:49.378Z,95488.45
2019-01-29T15:02:21.109Z,95484.07
2019-01-29T15:04:53.072Z,95483.05
2019-01-29T15:07:30.342Z,95480.75
2019-01-29T15:09:58.322Z,95479.79
2019-01-29T15:12:30.049Z,95479.67
2019-01-29T15:15:01.789Z,95474.48
2019-01-29T15:17:44.297Z,95473.67
2019-01-29T15:20:16.290Z,95473.02
2019-01-29T15:22:48.653Z,95472.17
2019-01-29T15:25:20.464Z,95459.41
2019-01-29T15:27:52.339Z,95463.00
2019-01-29T15:30:28.038Z,95456.38
2019-01-29T15:33:00.098Z,95459.41
2019-01-29T15:35:31.991Z,95456.42
2019-01-29T15:38:04.058Z,95450.76
2019-01-29T15:40:36.134Z,95450.63
2019-01-29T15:43:08.083Z,95448.30
2019-01-29T15:45:40.052Z,95444.09
2019-01-29T15:48:11.864Z,95437.21
2019-01-29T15:50:43.748Z,95435.17
2019-01-29T15:53:15.716Z,95431.50
2019-01-29T15:55:47.534Z,95435.47
2019-01-29T15:58:19.497Z,95431.11
2019-01-29T16:00:51.455Z,95425.93
2019-01-29T16:03:23.366Z,95423.72
2019-01-29T16:05:55.191Z,95419.91
2019-01-29T16:08:27.015Z,95420.67
2019-01-29T16:10:58.833Z,95416.56
2019-01-29T16:13:30.573Z,95413.23
2019-01-29T16:16:02.463Z,95411.66
2019-01-29T16:18:34.287Z,95411.31
2019-01-29T16:21:06.181Z,95412.93
2019-01-29T16:23:37.914Z,95406.27
2019-01-29T16:26:09.794Z,95399.38
2019-01-29T16:28:41.839Z,95394.27
2019-01-29T16:31:13.725Z,95393.83
2019-01-29T16:33:45.458Z,95387.23
2019-01-29T16:36:17.416Z,95384.36
2019-01-29T16:38:49.539Z,95379.71
2019-01-29T16:41:21.666Z,95386.44
2019-01-29T16:43:53.586Z,95389.31
2019-01-29T16:46:25.474Z,95390.86
2019-01-29T16:48:57.291Z,95380.46
2019-01-29T16:51:29.190Z,95382.80
2019-01-29T16:54:01.007Z,95381.09
2019-01-29T16:56:32.845Z,95368.63
2019-01-29T16:59:04.810Z,95366.28
2019-01-29T17:01:36.899Z,95360.75
2019-01-29T17:04:09.044Z,95359.09
2019-01-29T17:06:40.956Z,95347.66
2019-01-29T17:09:13.312Z,95346.98
2019-01-29T17:11:46.330Z,95343.72
2019-01-29T17:14:18.098Z,95340.86
2019-01-29T17:16:49.854Z,95340.20
2019-01-29T17:19:21.733Z,95335.55
2019-01-29T17:21:53.670Z,95334.74
2019-01-29T17:24:25.485Z,95333.53
2019-01-29T17:26:57.303Z,95328.76
2019-01-29T17:29:29.117Z,95318.47
2019-01-29T17:32:00.955Z,95316.50
2019-01-29T17:34:33.487Z,95313.41
2019-01-29T17:37:05.464Z,95315.17
2019-01-29T17:39:37.383Z,95308.89
2019-01-29T17:42:10.227Z,95306.66
2019-01-29T17:44:42.119Z,95301.65
2019-01-29T17:47:13.886Z,95294.14
2019-01-29T17:49:45.775Z,95284.05
2019-01-29T17:52:17.679Z,95278.83
2019-01-29T17:54:49.442Z,95285.66
2019-01-29T17:57:21.286Z,95280.70
2019-01-29T17:59:53.186Z,95271.41
2019-01-29T18:02:25.019Z,95268.47
2019-01-29T18:04:56.776Z,95264.87
2019-01-29T18:07:28.809Z,95259.83
2019-01-29T18:10:00.645Z,95260.50
2019-01-29T18:12:32.398Z,95255.89
2019-01-29T18:15:04.572Z,95248.45
2019-01-29T18:17:36.402Z,95243.69
2019-01-29T18:20:08.478Z,95241.77
2019-01-29T18:22:40.389Z,95244.39
2019-01-29T18:25:13.315Z,95241.65
2019-01-29T18:27:45.293Z,95235.04
2019-01-29T18:30:28.108Z,95222.64
2019-01-29T18:32:59.940Z,95219.86
2019-01-29T18:35:31.906Z,95221.66
2019-01-29T18:38:04.848Z,95212.59
2019-01-29T18:40:41.863Z,95209.69
2019-01-29T18:43:13.701Z,95208.52
2019-01-29T18:45:45.549Z,95202.17
2019-01-29T18:48:17.486Z,95198.91
2019-01-29T18:50:50.376Z,95199.42
2019-01-29T18:53:22.132Z,95201.31
2019-01-29T18:55:54.034Z,95195.84
2019-01-29T18:58:25.862Z,95193.13
2019-01-29T19:00:57.742Z,95184.86
2019-01-29T19:03:29.534Z,95191.31
2019-01-29T19:06:01.279Z,95183.91
2019-01-29T19:08:33.044Z,95176.86
2019-01-29T19:11:04.866Z,95177.88
2019-01-29T19:13:37.768Z,95178.05
2019-01-29T19:16:10.327Z,95170.45
2019-01-29T19:18:42.156Z,95170.23
2019-01-29T19:21:13.990Z,95163.17
2019-01-29T19:23:45.829Z,95163.00
2019-01-29T19:26:17.989Z,95159.55
2019-01-29T19:28:49.744Z,95154.31
2019-01-29T19:31:21.635Z,95153.06
2019-01-29T19:33:53.523Z,95155.77
2019-01-29T19:36:26.199Z,95155.79
2019-01-29T19:38:58.049Z,95154.83
2019-01-29T19:41:30.127Z,95151.35
2019-01-29T19:44:01.880Z,95148.06
2019-01-29T19:46:33.709Z,95143.80
2019-01-29T19:49:05.623Z,95141.05
2019-01-29T19:51:37.512Z,95139.47
2019-01-29T19:54:10.024Z,95135.23
2019-01-29T19:56:41.920Z,95129.46
2019-01-29T19:59:13.761Z,95126.95
2019-01-29T20:01:45.652Z,95125.08
2019-01-29T20:04:17.486Z,95121.24
2019-01-29T20:06:49.339Z,95113.04
2019-01-29T20:09:21.315Z,95114.56
2019-01-29T20:11:53.110Z,95106.44
2019-01-29T20:14:24.946Z,95104.31
2019-01-29T20:16:56.771Z,95103.53
2019-01-29T20:19:28.689Z,95104.20
2019-01-29T20:22:00.515Z,95101.45
2019-01-29T20:24:32.354Z,95098.08
2019-01-29T20:27:04.252Z,95092.60
2019-01-29T20:29:36.023Z,95089.75
2019-01-29T20:32:07.864Z,95090.20
2019-01-29T20:34:39.637Z,95085.10
2019-01-29T20:37:11.673Z,95085.33
2019-01-29T20:39:43.615Z,95084.00
2019-01-29T20:42:15.844Z,95078.48
2019-01-29T20:44:47.692Z,95071.38
2019-01-29T20:47:19.860Z,95069.13
2019-01-29T20:49:52.023Z,95062.78
2019-01-29T20:52:23.929Z,95055.35
2019-01-29T20:54:56.256Z,95054.22
2019-01-29T20:57:28.002Z,95057.48
2019-01-29T21:00:00.294Z,95048.13
2019-01-29T21:02:32.395Z,95045.60
2019-01-29T21:05:04.419Z,95039.55
2019-01-29T21:07:36.323Z,95042.03
2019-01-29T21:10:11.589Z,95032.16
2019-01-29T21:12:43.472Z,95032.05
2019-01-29T21:15:17.032Z,95025.55
2019-01-29T21:17:48.970Z,95018.91
2019-01-29T21:20:27.409Z,95010.64
2019-01-29T21:22:59.409Z,95004.02
2019-01-29T21:25:31.247Z,95006.06
2019-01-29T21:28:02.993Z,94995.81
2019-01-29T21:30:38.247Z,94991.54
2019-01-29T21:33:10.132Z,94994.52
2019-01-29T21:35:42.045Z,94990.42
2019-01-29T21:38:13.932Z,94988.89
2019-01-29T21:40:45.773Z,94977.05
2019-01-29T21:43:17.698Z,94965.84
2019-01-29T21:45:49.541Z,94964.21
2019-01-29T21:48:21.376Z,94962.45
2019-01-29T21:50:53.242Z,94957.34
2019-01-29T21:53:25.072Z,94954.83
2019-01-29T21:55:57.419Z,94946.08
2019-01-29T21:58:29.240Z,94942.69
2019-01-29T22:01:01.015Z,94936.70
2019-01-29T22:03:33.102Z,94932.14
2019-01-29T22:06:05.595Z,94927.68
2019-01-29T22:08:37.427Z,94916.66
2019-01-29T22:11:09.952Z,94915.78
2019-01-29T22:13:41.703Z,94914.27
2019-01-29T22:16:13.552Z,94910.75
2019-01-29T22:18:45.307Z,94911.22
2019-01-29T22:21:17.330Z,94901.37
2019-01-29T22:23:49.231Z,94899.07
2019-01-29T22:26:21.404Z,94895.67
2019-01-29T22:28:53.372Z,94895.45
2019-01-29T22:31:25.282Z,94889.00
2019-01-29T22:33:57.101Z,94887.40
2019-01-29T22:36:29.012Z,94882.48
2019-01-29T22:39:00.906Z,94884.13
2019-01-29T22:41:34.276Z,94881.89
2019-01-29T22:44:06.272Z,94884.94
2019-01-29T22:46:38.112Z,94872.30
2019-01-29T22:49:09.937Z,94865.84
2019-01-29T22:51:41.771Z,94869.70
2019-01-29T22:54:13.523Z,94868.83
2019-01-29T22:56:45.688Z,94867.47
2019-01-29T22:59:18.470Z,94857.76
2019-01-29T23:01:50.417Z,94857.48
2019-01-29T23:04:32.293Z,94856.53
2019-01-29T23:07:37.879Z,94850.97
2019-01-29T23:10:16.156Z,94849.08
2019-01-29T23:12:49.054Z,94851.19
2019-01-29T23:15:32.625Z,94832.33
2019-01-29T23:18:00.296Z,94835.50
2019-01-29T23:20:32.378Z,94831.03
2019-01-29T23:23:04.126Z,94823.30
2019-01-29T23:25:35.896Z,94818.67
2019-01-29T23:28:07.795Z,94817.28
2019-01-29T23:30:39.697Z,94817.28
2019-01-29T23:33:11.530Z,94805.87
2019-01-29T23:35:43.449Z,94804.76
2019-01-29T23:38:15.198Z,94803.05
2019-01-29T23:40:47.035Z,94799.24
2019-01-29T23:43:18.935Z,94793.95
2019-01-29T23:45:50.844Z,94791.67
2019-01-29T23:48:22.751Z,94784.66
2019-01-29T23:50:54.692Z,94774.36
2019-01-29T23:53:26.529Z,94766.73
2019-01-29T23:55:58.357Z,94767.78
2019-01-29T23:58:30.200Z,94766.89
